createdAt,value
2023-01-19T00:01:39.548Z,90.60
2023-01-19T00:05:43.380Z,91.10
2023-01-19T00:09:45.231Z,91.00
2023-01-19T00:13:50.583Z,90.50
2023-01-19T00:17:52.585Z,90.50
2023-01-19T00:21:55.821Z,90.90
2023-01-19T00:25:57.785Z,90.90
2023-01-19T00:29:59.746Z,91.00
2023-01-19T00:34:02.378Z,90.80
2023-01-19T00:38:04.335Z,91.10
2023-01-19T00:42:24.671Z,91.30
2023-01-19T00:46:27.148Z,91.50
2023-01-19T00:50:31.039Z,91.10
2023-01-19T00:54:32.927Z,91.40
2023-01-19T00:58:34.922Z,91.40
2023-01-19T01:02:37.568Z,91.00
2023-01-19T01:06:39.607Z,91.10
2023-01-19T01:10:41.515Z,91.30
2023-01-19T01:14:43.508Z,91.20
2023-01-19T01:18:46.462Z,90.80
2023-01-19T01:22:50.624Z,90.80
2023-01-19T01:26:52.514Z,90.60
2023-01-19T01:30:56.171Z,90.80
2023-01-19T01:34:58.153Z,90.80
2023-01-19T01:39:00.562Z,91.10
2023-01-19T01:43:02.922Z,90.80
2023-01-19T01:47:05.188Z,90.80
2023-01-19T01:51:24.340Z,91.30
2023-01-19T01:55:28.168Z,91.40
2023-01-19T01:59:39.215Z,91.00
2023-01-19T02:03:41.438Z,91.20
2023-01-19T02:08:14.123Z,91.30
2023-01-19T02:12:34.429Z,91.60
2023-01-19T02:16:38.073Z,91.20
2023-01-19T02:20:45.141Z,91.20
2023-01-19T02:24:47.175Z,91.30
2023-01-19T02:29:04.399Z,91.20
2023-01-19T02:33:07.225Z,90.80
2023-01-19T02:37:12.966Z,90.80
2023-01-19T02:41:21.306Z,90.70
2023-01-19T02:45:24.044Z,90.60
2023-01-19T02:49:29.594Z,90.80
2023-01-19T02:53:47.567Z,91.20
2023-01-19T02:58:15.180Z,90.80
2023-01-19T03:02:22.155Z,90.60
2023-01-19T03:06:53.535Z,90.50
2023-01-19T03:11:18.818Z,90.20
2023-01-19T03:15:29.567Z,90.20
2023-01-19T03:19:39.366Z,90.80
2023-01-19T03:23:44.074Z,90.30
2023-01-19T03:27:47.188Z,90.60
2023-01-19T03:31:51.795Z,90.30
2023-01-19T03:36:01.587Z,90.20
2023-01-19T03:40:03.783Z,90.50
2023-01-19T03:44:06.488Z,90.70
2023-01-19T03:48:08.888Z,90.50
2023-01-19T03:52:12.874Z,90.70
2023-01-19T03:56:21.749Z,90.30
2023-01-19T04:00:24.263Z,90.40
2023-01-19T04:04:26.246Z,90.30
2023-01-19T04:08:28.607Z,90.50
2023-01-19T04:12:30.923Z,90.20
2023-01-19T04:16:32.825Z,90.50
2023-01-19T04:20:34.834Z,90.50
2023-01-19T04:24:36.788Z,90.50
2023-01-19T04:28:39.056Z,90.30
2023-01-19T04:32:41.027Z,90.50
2023-01-19T04:36:43.039Z,90.30
2023-01-19T04:40:44.858Z,90.50
2023-01-19T04:44:46.810Z,90.50
2023-01-19T04:48:48.781Z,90.50
2023-01-19T04:52:51.069Z,91.20
2023-01-19T04:56:52.997Z,91.00
2023-01-19T05:00:55.027Z,90.60
2023-01-19T05:04:57.038Z,90.40
2023-01-19T05:08:59.091Z,90.30
2023-01-19T05:13:01.317Z,90.20
2023-01-19T05:17:03.676Z,90.30
2023-01-19T05:21:06.454Z,89.90
2023-01-19T05:25:08.909Z,90.10
2023-01-19T05:29:10.753Z,90.20
2023-01-19T05:33:12.633Z,89.80
2023-01-19T05:37:14.713Z,89.50
2023-01-19T05:41:17.670Z,89.50
2023-01-19T05:45:19.593Z,89.70
2023-01-19T05:49:21.560Z,88.90
2023-01-19T05:53:23.512Z,90.00
2023-01-19T05:57:25.415Z,90.30
2023-01-19T06:01:27.516Z,90.40
2023-01-19T06:05:29.975Z,90.10
2023-01-19T06:09:32.610Z,90.10
2023-01-19T06:13:34.933Z,90.00
2023-01-19T06:17:36.995Z,90.00
2023-01-19T06:21:38.972Z,89.00
2023-01-19T06:25:40.915Z,89.00
2023-01-19T06:29:42.853Z,90.00
2023-01-19T06:33:44.776Z,90.00
2023-01-19T06:37:46.716Z,90.00
2023-01-19T06:41:48.784Z,90.40
2023-01-19T06:45:51.013Z,90.20
2023-01-19T06:49:53.147Z,89.80
2023-01-19T06:53:55.057Z,89.50
2023-01-19T06:58:00.041Z,89.30
2023-01-19T07:02:27.394Z,88.80
2023-01-19T07:06:24.051Z,89.10
2023-01-19T07:10:25.972Z,88.50
2023-01-19T07:14:49.549Z,88.20
2023-01-19T07:18:51.585Z,89.00
2023-01-19T07:22:57.375Z,89.10
2023-01-19T07:26:59.835Z,89.10
2023-01-19T07:31:01.853Z,88.80
2023-01-19T07:35:04.408Z,89.20
2023-01-19T07:39:06.487Z,89.50
2023-01-19T07:43:08.443Z,89.40
2023-01-19T07:47:12.725Z,89.10
2023-01-19T07:51:18.694Z,89.10
2023-01-19T07:55:21.553Z,89.30
2023-01-19T07:59:23.470Z,88.40
2023-01-19T08:03:25.270Z,88.50
2023-01-19T08:07:27.284Z,88.60
2023-01-19T08:11:29.124Z,89.00
2023-01-19T08:15:31.061Z,89.90
2023-01-19T08:19:33.030Z,90.00
2023-01-19T08:23:35.021Z,89.50
2023-01-19T08:27:37.011Z,89.20
2023-01-19T08:31:39.655Z,90.20
2023-01-19T08:35:43.496Z,90.40
2023-01-19T08:39:45.445Z,90.60
2023-01-19T08:43:47.674Z,90.30
2023-01-19T08:47:49.814Z,90.70
2023-01-19T08:51:51.775Z,90.70
2023-01-19T08:55:59.842Z,90.80
2023-01-19T09:00:01.889Z,90.90
2023-01-19T09:04:04.052Z,90.80
2023-01-19T09:08:09.294Z,91.00
2023-01-19T09:12:11.353Z,90.80
2023-01-19T09:16:14.945Z,91.10
2023-01-19T09:20:16.983Z,91.20
2023-01-19T09:24:18.930Z,91.20
2023-01-19T09:28:20.902Z,91.40
2023-01-19T09:32:23.052Z,90.90
2023-01-19T09:36:25.016Z,91.10
2023-01-19T09:40:27.858Z,91.30
2023-01-19T09:44:34.402Z,91.40
2023-01-19T09:48:44.085Z,91.50
2023-01-19T09:52:52.769Z,91.30
2023-01-19T09:56:55.008Z,91.20
2023-01-19T10:01:07.517Z,90.90
2023-01-19T10:05:21.505Z,91.20
2023-01-19T10:09:37.095Z,91.20
2023-01-19T10:13:51.854Z,90.90
2023-01-19T10:17:56.863Z,90.90
2023-01-19T10:22:04.045Z,90.80
2023-01-19T10:26:15.701Z,91.00
2023-01-19T10:30:24.994Z,90.60
2023-01-19T10:34:26.976Z,91.10
2023-01-19T10:38:30.442Z,91.10
2023-01-19T10:42:32.544Z,90.60
2023-01-19T10:46:47.870Z,91.30
2023-01-19T10:51:02.560Z,90.90
2023-01-19T10:55:07.771Z,90.60
2023-01-19T10:59:34.389Z,90.90
2023-01-19T11:03:36.409Z,90.60
2023-01-19T11:07:38.369Z,90.60
2023-01-19T11:11:51.752Z,90.40
2023-01-19T11:16:00.015Z,88.40
2023-01-19T11:20:02.716Z,89.50
2023-01-19T11:24:09.266Z,87.80
2023-01-19T11:28:44.845Z,87.30
2023-01-19T11:32:49.111Z,88.10
2023-01-19T11:37:02.313Z,87.60
2023-01-19T11:41:06.594Z,87.70
2023-01-19T11:45:19.266Z,87.00
2023-01-19T11:49:34.684Z,87.30
2023-01-19T11:53:37.615Z,86.70
2023-01-19T11:57:47.494Z,87.10
2023-01-19T12:01:54.865Z,88.40
2023-01-19T12:06:22.621Z,88.10
2023-01-19T12:10:28.925Z,89.10
2023-01-19T12:14:59.632Z,89.10
2023-01-19T12:19:14.762Z,88.50
2023-01-19T12:23:41.002Z,88.80
2023-01-19T12:27:45.577Z,88.80
2023-01-19T12:32:13.346Z,88.00
2023-01-19T12:36:30.657Z,87.50
2023-01-19T12:40:35.212Z,86.30
2023-01-19T12:44:37.452Z,89.00
2023-01-19T12:48:40.093Z,88.60
2023-01-19T12:52:51.546Z,88.20
2023-01-19T12:57:00.448Z,88.10
2023-01-19T13:01:21.022Z,88.80
2023-01-19T13:05:44.733Z,87.90
2023-01-19T13:09:46.750Z,86.60
2023-01-19T13:13:48.707Z,86.90
2023-01-19T13:17:53.435Z,85.70
2023-01-19T13:21:55.436Z,84.00
2023-01-19T13:26:04.928Z,86.00
2023-01-19T13:30:16.606Z,82.90
2023-01-19T13:34:21.379Z,84.80
2023-01-19T13:38:24.720Z,83.60
2023-01-19T13:42:37.624Z,82.90
2023-01-19T13:46:40.649Z,84.40
2023-01-19T13:50:44.538Z,84.00
2023-01-19T13:55:03.753Z,84.80
2023-01-19T13:59:12.920Z,85.10
2023-01-19T14:03:21.508Z,84.40
2023-01-19T14:07:26.722Z,85.60
2023-01-19T14:11:28.757Z,85.50
2023-01-19T14:15:34.034Z,84.50
2023-01-19T14:19:53.622Z,84.50
2023-01-19T14:24:17.605Z,83.60
2023-01-19T14:28:26.791Z,84.00
2023-01-19T14:32:29.701Z,83.80
2023-01-19T14:36:39.794Z,83.30
2023-01-19T14:40:42.119Z,84.80
2023-01-19T14:44:48.272Z,85.70
2023-01-19T14:48:59.266Z,83.60
2023-01-19T14:53:16.053Z,83.60
2023-01-19T14:57:18.068Z,83.40
2023-01-19T15:01:20.147Z,85.60
2023-01-19T15:05:23.050Z,84.10
2023-01-19T15:09:25.528Z,84.00
2023-01-19T15:13:28.042Z,85.60
2023-01-19T15:17:30.121Z,84.60
2023-01-19T15:21:32.224Z,86.00
2023-01-19T15:25:34.120Z,85.50
2023-01-19T15:29:36.211Z,86.10
2023-01-19T15:33:38.177Z,86.40
2023-01-19T15:37:40.155Z,86.10
2023-01-19T15:41:42.181Z,86.90
2023-01-19T15:45:48.490Z,87.10
2023-01-19T15:49:50.516Z,87.30
2023-01-19T15:53:53.236Z,87.00
2023-01-19T15:58:01.270Z,87.40
2023-01-19T16:02:03.891Z,87.80
2023-01-19T16:06:06.333Z,87.40
2023-01-19T16:10:09.644Z,87.40
2023-01-19T16:14:11.889Z,87.10
2023-01-19T16:18:13.903Z,88.00
2023-01-19T16:22:15.700Z,87.80
2023-01-19T16:26:24.816Z,88.20
2023-01-19T16:30:26.849Z,88.30
2023-01-19T16:34:29.088Z,87.40
2023-01-19T16:38:31.037Z,88.10
2023-01-19T16:42:33.028Z,88.60
2023-01-19T16:46:38.761Z,89.00
2023-01-19T16:50:40.739Z,89.30
2023-01-19T16:54:43.339Z,89.50
2023-01-19T16:58:45.733Z,89.70
2023-01-19T17:02:47.776Z,89.80
2023-01-19T17:06:52.377Z,90.00
2023-01-19T17:10:55.665Z,90.20
2023-01-19T17:14:57.709Z,90.30
2023-01-19T17:19:01.800Z,90.40
2023-01-19T17:23:03.807Z,90.70
2023-01-19T17:27:05.722Z,90.50
2023-01-19T17:31:16.790Z,90.40
2023-01-19T17:35:18.873Z,90.50
2023-01-19T17:39:20.882Z,90.50
2023-01-19T17:43:22.922Z,90.70
2023-01-19T17:47:26.071Z,90.50
2023-01-19T17:51:29.353Z,91.00
2023-01-19T17:55:34.153Z,91.10
2023-01-19T17:59:37.392Z,90.70
2023-01-19T18:03:40.108Z,90.90
2023-01-19T18:07:41.985Z,90.90
2023-01-19T18:11:43.921Z,90.50
2023-01-19T18:15:45.927Z,90.30
2023-01-19T18:19:49.000Z,90.30
2023-01-19T18:23:51.604Z,90.80
2023-01-19T18:27:53.653Z,90.90
2023-01-19T18:31:55.575Z,90.90
2023-01-19T18:35:57.567Z,90.70
2023-01-19T18:40:04.286Z,90.90
2023-01-19T18:44:06.372Z,91.10
2023-01-19T18:48:09.526Z,90.90
2023-01-19T18:52:11.544Z,90.80
2023-01-19T18:56:15.289Z,90.80
2023-01-19T19:00:18.396Z,90.80
2023-01-19T19:04:20.375Z,91.00
2023-01-19T19:08:22.442Z,91.10
2023-01-19T19:12:24.574Z,91.10
2023-01-19T19:16:27.344Z,91.10
2023-01-19T19:20:29.347Z,91.30
2023-01-19T19:24:31.485Z,91.40
2023-01-19T19:28:35.020Z,91.00
2023-01-19T19:32:37.321Z,90.80
2023-01-19T19:36:40.002Z,90.50
2023-01-19T19:40:41.939Z,90.30
2023-01-19T19:44:43.895Z,90.40
2023-01-19T19:48:46.808Z,90.60
2023-01-19T19:52:48.788Z,91.00
2023-01-19T19:56:52.161Z,91.30
2023-01-19T20:00:55.446Z,91.50
2023-01-19T20:04:58.644Z,91.50
2023-01-19T20:09:00.936Z,91.60
2023-01-19T20:13:03.483Z,91.60
2023-01-19T20:17:05.785Z,91.60
2023-01-19T20:21:32.635Z,91.70
2023-01-19T20:25:38.819Z,91.90
2023-01-19T20:29:40.717Z,91.80
2023-01-19T20:33:43.612Z,91.50
2023-01-19T20:37:45.728Z,91.40
2023-01-19T20:41:50.164Z,91.40
2023-01-19T20:45:53.149Z,91.90
2023-01-19T20:49:55.151Z,92.10
2023-01-19T20:53:57.111Z,92.40
2023-01-19T20:57:59.110Z,92.10
2023-01-19T21:02:01.059Z,91.90
2023-01-19T21:06:03.020Z,91.70
2023-01-19T21:10:05.533Z,91.90
2023-01-19T21:14:07.609Z,91.90
2023-01-19T21:18:09.620Z,91.90
2023-01-19T21:22:11.554Z,91.80
2023-01-19T21:26:14.612Z,91.80
2023-01-19T21:30:17.948Z,91.90
2023-01-19T21:34:20.037Z,91.90
2023-01-19T21:38:23.315Z,91.80
2023-01-19T21:42:25.306Z,91.80
2023-01-19T21:46:30.611Z,92.10
2023-01-19T21:50:32.996Z,92.00
2023-01-19T21:54:34.933Z,91.90
2023-01-19T21:58:37.318Z,91.90
2023-01-19T22:02:39.413Z,92.00
2023-01-19T22:06:41.486Z,92.20
2023-01-19T22:10:43.431Z,92.00
2023-01-19T22:14:45.402Z,91.90
2023-01-19T22:18:53.985Z,92.20
2023-01-19T22:22:56.785Z,92.10
2023-01-19T22:26:58.768Z,92.00
2023-01-19T22:31:10.679Z,92.10
2023-01-19T22:35:12.952Z,92.20
2023-01-19T22:39:15.133Z,92.00
2023-01-19T22:43:17.176Z,92.10
2023-01-19T22:47:19.197Z,92.30
2023-01-19T22:51:22.482Z,92.10
2023-01-19T22:55:24.363Z,92.20
2023-01-19T22:59:26.384Z,92.00
2023-01-19T23:03:29.431Z,92.10
2023-01-19T23:07:31.456Z,91.90
2023-01-19T23:11:36.419Z,92.20
2023-01-19T23:15:38.419Z,92.60
2023-01-19T23:19:40.395Z,92.50
2023-01-19T23:23:43.502Z,92.40
2023-01-19T23:27:45.454Z,92.50
2023-01-19T23:31:49.194Z,92.10
2023-01-19T23:35:51.143Z,92.40
2023-01-19T23:39:53.104Z,92.20
2023-01-19T23:43:55.066Z,92.20
2023-01-19T23:47:56.993Z,92.30
2023-01-19T23:51:58.922Z,92.30
2023-01-19T23:56:09.833Z,92.20
